Gurli — SLEG — position and weather

sailwx.info

Track history (hours):
 
Tides and Currents Weather Stations Pressure Air Temp Water Temp Dewpoint Dewpoint Depression Visibility Wind Speed Wind Dir Waves Ship Positions

Gurli

Last reported at 2016-Aug-26 19:32 UTC. Time now 2016-Aug-26 20:02 UTC.
Position N 59°20' E 018°05'.

Length 21 m.

Type: Passenger vessel. MMSI: 265687640.

Date/timePositionNaut miles runAvg speedWind from/ knotsBaromVisibWave heightAir tempDewpointWater temp
2016-Aug-26 19:32N 59°20' E 018°05'0 0.0
2016-Aug-26 18:32N 59°20' E 018°05'0 0.0
2016-Aug-26 17:32N 59°20' E 018°05'3 2.5
2016-Aug-26 16:33N 59°19' E 018°10'2 1.5
2016-Aug-26 15:33N 59°19' E 018°07'2 1.6
2016-Aug-26 14:33N 59°19' E 018°10'2 1.8
2016-Aug-26 13:33N 59°19' E 018°06'2 1.8
2016-Aug-26 12:33N 59°19' E 018°10'2 1.5
2016-Aug-26 11:33N 59°19' E 018°07'2 1.5
2016-Aug-26 10:32N 59°19' E 018°10'2 1.6
2016-Aug-26 09:34N 59°19' E 018°07'1 1.5
2016-Aug-26 08:33N 59°19' E 018°09'1 1.5
2016-Aug-26 07:34N 59°19' E 018°07'2 1.5
2016-Aug-26 06:31N 59°20' E 018°09'1 0.6
2016-Aug-26 04:33N 59°19' E 018°07'2 1.4
2016-Aug-26 03:29N 59°20' E 018°05'0 0.0
2016-Aug-26 02:32N 59°20' E 018°05'0 0.0
2016-Aug-26 01:32N 59°20' E 018°05'0 0.0
2016-Aug-26 00:29N 59°20' E 018°05'0 0.0
2016-Aug-25 23:32N 59°20' E 018°05'0 0.0
2016-Aug-25 22:32N 59°20' E 018°05'0 0.0
2016-Aug-25 21:29N 59°20' E 018°05'0 0.0
2016-Aug-25 20:32N 59°20' E 018°05'0 0.0
2016-Aug-25 19:32N 59°20' E 018°05'0 0.0
2016-Aug-25 18:32N 59°20' E 018°05'0 0.0
2016-Aug-25 17:29N 59°20' E 018°05'1 0.1
2016-Aug-25 04:33N 59°19' E 018°07'1 1.4
2016-Aug-25 03:32N 59°20' E 018°05'0 0.0
2016-Aug-25 02:32N 59°20' E 018°05'0 0.0
2016-Aug-25 01:32N 59°20' E 018°05'0 0.0
2016-Aug-25 00:32N 59°20' E 018°05'0 0.0
2016-Aug-24 23:32N 59°20' E 018°05'0 0.0
2016-Aug-24 22:32N 59°20' E 018°05'0 0.0
2016-Aug-24 21:32N 59°20' E 018°05'0 0.0
2016-Aug-24 20:32N 59°20' E 018°05'0 0.0
2016-Aug-24 19:32N 59°20' E 018°05'0 0.0
2016-Aug-24 18:32N 59°20' E 018°05'0 0.0
2016-Aug-24 17:32N 59°20' E 018°05'3 2.6
2016-Aug-24 16:33N 59°19' E 018°10'2 1.5
2016-Aug-24 15:33N 59°19' E 018°07'2 1.6
2016-Aug-24 14:33N 59°20' E 018°09'2 1.8
2016-Aug-24 13:33N 59°19' E 018°06'2 1.8
2016-Aug-24 12:33N 59°19' E 018°10'2 1.5
2016-Aug-24 11:34N 59°19' E 018°07'2 1.5
2016-Aug-24 10:33N 59°19' E 018°10'2 1.6
2016-Aug-24 09:33N 59°19' E 018°07'1 1.5
2016-Aug-24 08:33N 59°19' E 018°09'1 1.5
2016-Aug-24 07:33N 59°19' E 018°07'2 1.6
2016-Aug-24 06:33N 59°20' E 018°09'1 0.6
2016-Aug-24 04:33N 59°19' E 018°07'1 1.4
2016-Aug-24 03:33N 59°20' E 018°05'0 0.0
2016-Aug-24 02:33N 59°20' E 018°05'0 0.0
2016-Aug-24 01:33N 59°20' E 018°05'0 0.0
2016-Aug-24 00:33N 59°20' E 018°05'0 0.0
2016-Aug-23 23:30N 59°20' E 018°05'0 0.0
2016-Aug-23 22:33N 59°20' E 018°05'0 0.0
2016-Aug-23 21:33N 59°20' E 018°05'0 0.0
2016-Aug-23 20:33N 59°20' E 018°05'0 0.0
2016-Aug-23 19:33N 59°20' E 018°05'0 0.0
2016-Aug-23 18:33N 59°20' E 018°05'0 0.0
2016-Aug-23 17:33N 59°20' E 018°05'2 2.5
2016-Aug-23 16:33N 59°19' E 018°09'1 1.4
2016-Aug-23 15:33N 59°19' E 018°07'2 1.6
2016-Aug-23 14:33N 59°20' E 018°09'2 1.9
2016-Aug-23 13:33N 59°19' E 018°06'2 1.9
2016-Aug-23 12:33N 59°19' E 018°10'2 1.5
2016-Aug-23 11:33N 59°19' E 018°07'1 1.5
2016-Aug-23 10:33N 59°19' E 018°09'1 1.5
2016-Aug-23 09:33N 59°19' E 018°07'1 1.4
2016-Aug-23 08:33N 59°19' E 018°09'1 1.4
2016-Aug-23 07:33N 59°19' E 018°07'2 1.6
2016-Aug-23 06:33N 59°20' E 018°09'2 1.6
2016-Aug-23 05:33N 59°19' E 018°07'0 0.3
2016-Aug-23 04:33N 59°19' E 018°07'1 1.3
2016-Aug-23 03:31N 59°20' E 018°05'0 0.0
2016-Aug-23 02:31N 59°20' E 018°05'0 0.0
2016-Aug-23 01:31N 59°20' E 018°05'0 0.0
2016-Aug-23 00:31N 59°20' E 018°05'0 0.0
2016-Aug-22 23:31N 59°20' E 018°05'0 0.0
2016-Aug-22 22:31N 59°20' E 018°05'0 0.0
2016-Aug-22 21:31N 59°20' E 018°05'0 0.0
2016-Aug-22 20:31N 59°20' E 018°05'0 0.0
2016-Aug-22 19:31N 59°20' E 018°05'0 0.0
2016-Aug-22 18:31N 59°20' E 018°05'0 0.0
2016-Aug-22 17:31N 59°20' E 018°05'2 2.5
2016-Aug-22 16:33N 59°19' E 018°09'1 1.4
2016-Aug-22 15:33N 59°19' E 018°07'2 1.6
2016-Aug-22 14:32N 59°20' E 018°09'2 1.9
2016-Aug-22 13:33N 59°19' E 018°06'2 1.7
2016-Aug-22 12:33N 59°19' E 018°09'1 1.4
2016-Aug-22 11:33N 59°19' E 018°07'1 1.3
2016-Aug-22 10:33N 59°19' E 018°09'1 1.3
2016-Aug-22 09:33N 59°19' E 018°07'2 1.5
2016-Aug-22 08:30N 59°19' E 018°10'1 1.6
2016-Aug-22 07:33N 59°19' E 018°07'2 1.5
2016-Aug-22 06:33N 59°19' E 018°09'2 1.6
2016-Aug-22 05:33N 59°19' E 018°07'0 0.3
2016-Aug-22 04:33N 59°19' E 018°07'1 1.3
2016-Aug-22 03:32N 59°20' E 018°05'0 0.0
2016-Aug-22 02:32N 59°20' E 018°05'0 0.0
2016-Aug-22 01:32N 59°20' E 018°05'0 0.0
2016-Aug-22 00:32N 59°20' E 018°05'0 0.0
2016-Aug-21 23:32N 59°20' E 018°05'0 0.0
2016-Aug-21 22:32N 59°20' E 018°05'0 0.0
2016-Aug-21 21:32N 59°20' E 018°05'0 0.0
2016-Aug-21 20:32N 59°20' E 018°05'0 0.0
2016-Aug-21 19:32N 59°20' E 018°05'0 0.0
2016-Aug-21 18:32N 59°20' E 018°05'0 0.2
2016-Aug-21 17:32N 59°20' E 018°05'2 2.4
2016-Aug-21 16:33N 59°20' E 018°09'2 2.0
2016-Aug-21 15:33N 59°19' E 018°06'0 0.4
2016-Aug-21 14:33N 59°20' E 018°05'2 2.2
2016-Aug-21 13:33N 59°20' E 018°09'2 2.4
2016-Aug-21 12:33N 59°20' E 018°05'1 0.6
2016-Aug-21 11:33N 59°20' E 018°05'0 0.1
2016-Aug-21 10:33N 59°19' E 018°06'2 1.5
2016-Aug-21 09:33N 59°19' E 018°08'0 0.3
2016-Aug-21 08:32N 59°19' E 018°09'2 2.2
2016-Aug-21 07:31N 59°20' E 018°05'0 0.0
2016-Aug-21 06:31N 59°20' E 018°05'0 0.0
2016-Aug-21 05:31N 59°20' E 018°05'0 0.0
2016-Aug-21 04:31N 59°20' E 018°05'0 0.0
2016-Aug-21 03:31N 59°20' E 018°05'0 0.0
2016-Aug-21 02:31N 59°20' E 018°05'0 0.0
2016-Aug-21 01:31N 59°20' E 018°05'0 0.0
2016-Aug-21 00:31N 59°20' E 018°05'0 0.0
2016-Aug-20 23:31N 59°20' E 018°05'0 0.0
2016-Aug-20 22:31N 59°20' E 018°05'0 0.0
2016-Aug-20 21:31N 59°20' E 018°05'0 0.0
2016-Aug-20 20:31N 59°20' E 018°05'0 0.0
2016-Aug-20 19:31N 59°20' E 018°05'0 0.0
2016-Aug-20 18:33N 59°20' E 018°05'0 0.2
2016-Aug-20 17:29N 59°20' E 018°05'2 2.6
2016-Aug-20 16:33N 59°21' E 018°09'2 2.2
2016-Aug-20 15:33N 59°19' E 018°06'1 0.7
2016-Aug-20 14:33N 59°20' E 018°05'2 2.2
2016-Aug-20 13:32N 59°20' E 018°09'2 2.3
2016-Aug-20 12:33N 59°20' E 018°05'1 1.0
2016-Aug-20 11:33N 59°19' E 018°06'0 0.1
2016-Aug-20 10:33N 59°19' E 018°06'1 0.7
2016-Aug-20 09:33N 59°19' E 018°07'1 0.8
2016-Aug-20 08:33N 59°19' E 018°09'2 2.1
2016-Aug-20 07:31N 59°20' E 018°05'0 0.0
2016-Aug-20 06:31N 59°20' E 018°05'0 0.0
2016-Aug-20 05:31N 59°20' E 018°05'0 0.0
2016-Aug-20 04:31N 59°20' E 018°05'0 0.0
2016-Aug-20 03:31N 59°20' E 018°05'0 0.0
2016-Aug-20 02:28N 59°20' E 018°05'0 0.0
2016-Aug-20 01:31N 59°20' E 018°05'0 0.0
2016-Aug-20 00:31N 59°20' E 018°05'0 0.0
2016-Aug-19 23:31N 59°20' E 018°05'0 0.0
2016-Aug-19 22:31N 59°20' E 018°05'0 0.0
2016-Aug-19 21:31N 59°20' E 018°05'0 0.0
2016-Aug-19 20:31N 59°20' E 018°05'0 0.0
2016-Aug-19 19:31N 59°20' E 018°05'0 0.2
2016-Aug-19 18:34N 59°20' E 018°05'0 0.3
2016-Aug-19 17:33N 59°20' E 018°05'2 1.8
2016-Aug-19 16:33N 59°21' E 018°08'2 1.9
2016-Aug-19 15:33N 59°20' E 018°05'2 2.0
2016-Aug-19 14:33N 59°19' E 018°09'1 1.3
2016-Aug-19 13:33N 59°19' E 018°06'2 1.6
2016-Aug-19 12:32N 59°19' E 018°10'1 0.7
2016-Aug-19 11:33N 59°19' E 018°08'2 2.0
2016-Aug-19 10:33N 59°20' E 018°05'1 1.2
2016-Aug-19 09:33N 59°19' E 018°06'1 1.2
2016-Aug-19 08:33N 59°19' E 018°09'2 2.2
2016-Aug-19 07:33N 59°20' E 018°05'2 2.0
2016-Aug-19 06:29N 59°21' E 018°09'2 2.2
2016-Aug-19 05:33N 59°20' E 018°05'0 0.1
2016-Aug-19 04:33N 59°20' E 018°05'0 0.0
2016-Aug-19 03:33N 59°20' E 018°05'0 0.0
2016-Aug-19 02:33N 59°20' E 018°05'0 0.0
2016-Aug-19 01:33N 59°20' E 018°05'0 0.0
2016-Aug-19 00:33N 59°20' E 018°05'0 0.0
2016-Aug-18 23:33N 59°20' E 018°05'0 0.0
2016-Aug-18 22:33N 59°20' E 018°05'0 0.0
2016-Aug-18 21:33N 59°20' E 018°05'0 0.0
2016-Aug-18 20:33N 59°20' E 018°05'0 0.0
2016-Aug-18 19:33N 59°20' E 018°05'0 0.0
2016-Aug-18 18:33N 59°20' E 018°05'1 0.6
2016-Aug-18 17:33N 59°19' E 018°06'1 0.4
2016-Aug-18 15:11N 59°20' E 018°05'  
Track history (hours):
 
Tides and Currents Weather Stations Pressure Air Temp Water Temp Dewpoint Dewpoint Depression Visibility Wind Speed Wind Dir Waves Ship Positions

Gurli

Last reported at 2016-Aug-26 19:32 UTC. Time now 2016-Aug-26 20:02 UTC.
Position N 59°20' E 018°05'.

Length 21 m.

Type: Passenger vessel. MMSI: 265687640.

Date/timePositionNaut miles runAvg speedWind from/ knotsBaromVisibWave heightAir tempDewpointWater temp
2016-Aug-26 19:32N 59°20' E 018°05'0 0.0
2016-Aug-26 18:32N 59°20' E 018°05'0 0.0
2016-Aug-26 17:32N 59°20' E 018°05'3 2.5
2016-Aug-26 16:33N 59°19' E 018°10'2 1.5
2016-Aug-26 15:33N 59°19' E 018°07'2 1.6
2016-Aug-26 14:33N 59°19' E 018°10'2 1.8
2016-Aug-26 13:33N 59°19' E 018°06'2 1.8
2016-Aug-26 12:33N 59°19' E 018°10'2 1.5
2016-Aug-26 11:33N 59°19' E 018°07'2 1.5
2016-Aug-26 10:32N 59°19' E 018°10'2 1.6
2016-Aug-26 09:34N 59°19' E 018°07'1 1.5
2016-Aug-26 08:33N 59°19' E 018°09'1 1.5
2016-Aug-26 07:34N 59°19' E 018°07'2 1.5
2016-Aug-26 06:31N 59°20' E 018°09'1 0.6
2016-Aug-26 04:33N 59°19' E 018°07'2 1.4
2016-Aug-26 03:29N 59°20' E 018°05'0 0.0
2016-Aug-26 02:32N 59°20' E 018°05'0 0.0
2016-Aug-26 01:32N 59°20' E 018°05'0 0.0
2016-Aug-26 00:29N 59°20' E 018°05'0 0.0
2016-Aug-25 23:32N 59°20' E 018°05'0 0.0
2016-Aug-25 22:32N 59°20' E 018°05'0 0.0
2016-Aug-25 21:29N 59°20' E 018°05'0 0.0
2016-Aug-25 20:32N 59°20' E 018°05'0 0.0
2016-Aug-25 19:32N 59°20' E 018°05'0 0.0
2016-Aug-25 18:32N 59°20' E 018°05'0 0.0
2016-Aug-25 17:29N 59°20' E 018°05'1 0.1
2016-Aug-25 04:33N 59°19' E 018°07'1 1.4
2016-Aug-25 03:32N 59°20' E 018°05'0 0.0
2016-Aug-25 02:32N 59°20' E 018°05'0 0.0
2016-Aug-25 01:32N 59°20' E 018°05'0 0.0
2016-Aug-25 00:32N 59°20' E 018°05'0 0.0
2016-Aug-24 23:32N 59°20' E 018°05'0 0.0
2016-Aug-24 22:32N 59°20' E 018°05'0 0.0
2016-Aug-24 21:32N 59°20' E 018°05'0 0.0
2016-Aug-24 20:32N 59°20' E 018°05'0 0.0
2016-Aug-24 19:32N 59°20' E 018°05'0 0.0
2016-Aug-24 18:32N 59°20' E 018°05'0 0.0
2016-Aug-24 17:32N 59°20' E 018°05'3 2.6
2016-Aug-24 16:33N 59°19' E 018°10'2 1.5
2016-Aug-24 15:33N 59°19' E 018°07'2 1.6
2016-Aug-24 14:33N 59°20' E 018°09'2 1.8
2016-Aug-24 13:33N 59°19' E 018°06'2 1.8
2016-Aug-24 12:33N 59°19' E 018°10'2 1.5
2016-Aug-24 11:34N 59°19' E 018°07'2 1.5
2016-Aug-24 10:33N 59°19' E 018°10'2 1.6
2016-Aug-24 09:33N 59°19' E 018°07'1 1.5
2016-Aug-24 08:33N 59°19' E 018°09'1 1.5
2016-Aug-24 07:33N 59°19' E 018°07'2 1.6
2016-Aug-24 06:33N 59°20' E 018°09'1 0.6
2016-Aug-24 04:33N 59°19' E 018°07'1 1.4
2016-Aug-24 03:33N 59°20' E 018°05'0 0.0
2016-Aug-24 02:33N 59°20' E 018°05'0 0.0
2016-Aug-24 01:33N 59°20' E 018°05'0 0.0
2016-Aug-24 00:33N 59°20' E 018°05'0 0.0
2016-Aug-23 23:30N 59°20' E 018°05'0 0.0
2016-Aug-23 22:33N 59°20' E 018°05'0 0.0
2016-Aug-23 21:33N 59°20' E 018°05'0 0.0
2016-Aug-23 20:33N 59°20' E 018°05'0 0.0
2016-Aug-23 19:33N 59°20' E 018°05'0 0.0
2016-Aug-23 18:33N 59°20' E 018°05'0 0.0
2016-Aug-23 17:33N 59°20' E 018°05'2 2.5
2016-Aug-23 16:33N 59°19' E 018°09'1 1.4
2016-Aug-23 15:33N 59°19' E 018°07'2 1.6
2016-Aug-23 14:33N 59°20' E 018°09'2 1.9
2016-Aug-23 13:33N 59°19' E 018°06'2 1.9
2016-Aug-23 12:33N 59°19' E 018°10'2 1.5
2016-Aug-23 11:33N 59°19' E 018°07'1 1.5
2016-Aug-23 10:33N 59°19' E 018°09'1 1.5
2016-Aug-23 09:33N 59°19' E 018°07'1 1.4
2016-Aug-23 08:33N 59°19' E 018°09'1 1.4
2016-Aug-23 07:33N 59°19' E 018°07'2 1.6
2016-Aug-23 06:33N 59°20' E 018°09'2 1.6
2016-Aug-23 05:33N 59°19' E 018°07'0 0.3
2016-Aug-23 04:33N 59°19' E 018°07'1 1.3
2016-Aug-23 03:31N 59°20' E 018°05'0 0.0
2016-Aug-23 02:31N 59°20' E 018°05'0 0.0
2016-Aug-23 01:31N 59°20' E 018°05'0 0.0
2016-Aug-23 00:31N 59°20' E 018°05'0 0.0
2016-Aug-22 23:31N 59°20' E 018°05'0 0.0
2016-Aug-22 22:31N 59°20' E 018°05'0 0.0
2016-Aug-22 21:31N 59°20' E 018°05'0 0.0
2016-Aug-22 20:31N 59°20' E 018°05'0 0.0
2016-Aug-22 19:31N 59°20' E 018°05'0 0.0
2016-Aug-22 18:31N 59°20' E 018°05'0 0.0
2016-Aug-22 17:31N 59°20' E 018°05'2 2.5
2016-Aug-22 16:33N 59°19' E 018°09'1 1.4
2016-Aug-22 15:33N 59°19' E 018°07'2 1.6
2016-Aug-22 14:32N 59°20' E 018°09'2 1.9
2016-Aug-22 13:33N 59°19' E 018°06'2 1.7
2016-Aug-22 12:33N 59°19' E 018°09'1 1.4
2016-Aug-22 11:33N 59°19' E 018°07'1 1.3
2016-Aug-22 10:33N 59°19' E 018°09'1 1.3
2016-Aug-22 09:33N 59°19' E 018°07'2 1.5
2016-Aug-22 08:30N 59°19' E 018°10'1 1.6
2016-Aug-22 07:33N 59°19' E 018°07'2 1.5
2016-Aug-22 06:33N 59°19' E 018°09'2 1.6
2016-Aug-22 05:33N 59°19' E 018°07'0 0.3
2016-Aug-22 04:33N 59°19' E 018°07'1 1.3
2016-Aug-22 03:32N 59°20' E 018°05'0 0.0
2016-Aug-22 02:32N 59°20' E 018°05'0 0.0
2016-Aug-22 01:32N 59°20' E 018°05'0 0.0
2016-Aug-22 00:32N 59°20' E 018°05'0 0.0
2016-Aug-21 23:32N 59°20' E 018°05'0 0.0
2016-Aug-21 22:32N 59°20' E 018°05'0 0.0
2016-Aug-21 21:32N 59°20' E 018°05'0 0.0
2016-Aug-21 20:32N 59°20' E 018°05'0 0.0
2016-Aug-21 19:32N 59°20' E 018°05'0 0.0
2016-Aug-21 18:32N 59°20' E 018°05'0 0.2
2016-Aug-21 17:32N 59°20' E 018°05'2 2.4
2016-Aug-21 16:33N 59°20' E 018°09'2 2.0
2016-Aug-21 15:33N 59°19' E 018°06'0 0.4
2016-Aug-21 14:33N 59°20' E 018°05'2 2.2
2016-Aug-21 13:33N 59°20' E 018°09'2 2.4
2016-Aug-21 12:33N 59°20' E 018°05'1 0.6
2016-Aug-21 11:33N 59°20' E 018°05'0 0.1
2016-Aug-21 10:33N 59°19' E 018°06'2 1.5
2016-Aug-21 09:33N 59°19' E 018°08'0 0.3
2016-Aug-21 08:32N 59°19' E 018°09'2 2.2
2016-Aug-21 07:31N 59°20' E 018°05'0 0.0
2016-Aug-21 06:31N 59°20' E 018°05'0 0.0
2016-Aug-21 05:31N 59°20' E 018°05'0 0.0
2016-Aug-21 04:31N 59°20' E 018°05'0 0.0
2016-Aug-21 03:31N 59°20' E 018°05'0 0.0
2016-Aug-21 02:31N 59°20' E 018°05'0 0.0
2016-Aug-21 01:31N 59°20' E 018°05'0 0.0
2016-Aug-21 00:31N 59°20' E 018°05'0 0.0
2016-Aug-20 23:31N 59°20' E 018°05'0 0.0
2016-Aug-20 22:31N 59°20' E 018°05'0 0.0
2016-Aug-20 21:31N 59°20' E 018°05'0 0.0
2016-Aug-20 20:31N 59°20' E 018°05'0 0.0
2016-Aug-20 19:31N 59°20' E 018°05'0 0.0
2016-Aug-20 18:33N 59°20' E 018°05'0 0.2
2016-Aug-20 17:29N 59°20' E 018°05'2 2.6
2016-Aug-20 16:33N 59°21' E 018°09'2 2.2
2016-Aug-20 15:33N 59°19' E 018°06'1 0.7
2016-Aug-20 14:33N 59°20' E 018°05'2 2.2
2016-Aug-20 13:32N 59°20' E 018°09'2 2.3
2016-Aug-20 12:33N 59°20' E 018°05'1 1.0
2016-Aug-20 11:33N 59°19' E 018°06'0 0.1
2016-Aug-20 10:33N 59°19' E 018°06'1 0.7
2016-Aug-20 09:33N 59°19' E 018°07'1 0.8
2016-Aug-20 08:33N 59°19' E 018°09'2 2.1
2016-Aug-20 07:31N 59°20' E 018°05'0 0.0
2016-Aug-20 06:31N 59°20' E 018°05'0 0.0
2016-Aug-20 05:31N 59°20' E 018°05'0 0.0
2016-Aug-20 04:31N 59°20' E 018°05'0 0.0
2016-Aug-20 03:31N 59°20' E 018°05'0 0.0
2016-Aug-20 02:28N 59°20' E 018°05'0 0.0
2016-Aug-20 01:31N 59°20' E 018°05'0 0.0
2016-Aug-20 00:31N 59°20' E 018°05'0 0.0
2016-Aug-19 23:31N 59°20' E 018°05'0 0.0
2016-Aug-19 22:31N 59°20' E 018°05'0 0.0
2016-Aug-19 21:31N 59°20' E 018°05'0 0.0
2016-Aug-19 20:31N 59°20' E 018°05'0 0.0
2016-Aug-19 19:31N 59°20' E 018°05'0 0.2
2016-Aug-19 18:34N 59°20' E 018°05'0 0.3
2016-Aug-19 17:33N 59°20' E 018°05'2 1.8
2016-Aug-19 16:33N 59°21' E 018°08'2 1.9
2016-Aug-19 15:33N 59°20' E 018°05'2 2.0
2016-Aug-19 14:33N 59°19' E 018°09'1 1.3
2016-Aug-19 13:33N 59°19' E 018°06'2 1.6
2016-Aug-19 12:32N 59°19' E 018°10'1 0.7
2016-Aug-19 11:33N 59°19' E 018°08'2 2.0
2016-Aug-19 10:33N 59°20' E 018°05'1 1.2
2016-Aug-19 09:33N 59°19' E 018°06'1 1.2
2016-Aug-19 08:33N 59°19' E 018°09'2 2.2
2016-Aug-19 07:33N 59°20' E 018°05'2 2.0
2016-Aug-19 06:29N 59°21' E 018°09'2 2.2
2016-Aug-19 05:33N 59°20' E 018°05'0 0.1
2016-Aug-19 04:33N 59°20' E 018°05'0 0.0
2016-Aug-19 03:33N 59°20' E 018°05'0 0.0
2016-Aug-19 02:33N 59°20' E 018°05'0 0.0
2016-Aug-19 01:33N 59°20' E 018°05'0 0.0
2016-Aug-19 00:33N 59°20' E 018°05'0 0.0
2016-Aug-18 23:33N 59°20' E 018°05'0 0.0
2016-Aug-18 22:33N 59°20' E 018°05'0 0.0
2016-Aug-18 21:33N 59°20' E 018°05'0 0.0
2016-Aug-18 20:33N 59°20' E 018°05'0 0.0
2016-Aug-18 19:33N 59°20' E 018°05'0 0.0
2016-Aug-18 18:33N 59°20' E 018°05'1 0.6
2016-Aug-18 17:33N 59°19' E 018°06'1 0.4
2016-Aug-18 15:11N 59°20' E 018°05'  

Dump ship's entire track history